sensor_id;sensor_type;location;lat;lon;timestamp;temperature;humidity
61841;DHT22;47773;53.174;6.614;2022-11-22T00:02:03;3.40;99.90
61841;DHT22;47773;53.174;6.614;2022-11-22T00:04:29;3.40;99.90
61841;DHT22;47773;53.174;6.614;2022-11-22T00:06:54;3.40;99.90
61841;DHT22;47773;53.174;6.614;2022-11-22T00:09:20;3.40;99.90
61841;DHT22;47773;53.174;6.614;2022-11-22T00:11:46;3.40;99.90
61841;DHT22;47773;53.174;6.614;2022-11-22T00:14:11;3.40;99.90
61841;DHT22;47773;53.174;6.614;2022-11-22T00:16:37;3.30;99.90
61841;DHT22;47773;53.174;6.614;2022-11-22T00:19:03;3.40;99.90
61841;DHT22;47773;53.174;6.614;2022-11-22T00:21:28;3.30;99.90
61841;DHT22;47773;53.174;6.614;2022-11-22T00:23:57;3.30;99.90
61841;DHT22;47773;53.174;6.614;2022-11-22T00:26:23;3.30;99.90
61841;DHT22;47773;53.174;6.614;2022-11-22T00:31:15;3.50;99.90
61841;DHT22;47773;53.174;6.614;2022-11-22T00:33:41;3.40;99.90
61841;DHT22;47773;53.174;6.614;2022-11-22T00:36:07;3.40;99.90
61841;DHT22;47773;53.174;6.614;2022-11-22T00:38:32;3.30;99.90
61841;DHT22;47773;53.174;6.614;2022-11-22T00:40:58;3.30;99.90
61841;DHT22;47773;53.174;6.614;2022-11-22T00:43:24;3.30;99.90
61841;DHT22;47773;53.174;6.614;2022-11-22T00:45:49;3.30;99.90
61841;DHT22;47773;53.174;6.614;2022-11-22T00:48:15;3.30;99.90
61841;DHT22;47773;53.174;6.614;2022-11-22T00:50:41;3.30;99.90
61841;DHT22;47773;53.174;6.614;2022-11-22T00:53:06;3.20;99.90
61841;DHT22;47773;53.174;6.614;2022-11-22T00:55:32;3.20;99.90
61841;DHT22;47773;53.174;6.614;2022-11-22T00:57:57;3.20;99.90
61841;DHT22;47773;53.174;6.614;2022-11-22T01:00:23;3.20;99.90
61841;DHT22;47773;53.174;6.614;2022-11-22T01:02:49;3.20;99.90
61841;DHT22;47773;53.174;6.614;2022-11-22T01:05:14;3.20;99.90
61841;DHT22;47773;53.174;6.614;2022-11-22T01:07:43;3.10;99.90
61841;DHT22;47773;53.174;6.614;2022-11-22T01:10:09;3.20;99.90
61841;DHT22;47773;53.174;6.614;2022-11-22T01:12:34;3.10;99.90
61841;DHT22;47773;53.174;6.614;2022-11-22T01:15:00;3.10;99.90
61841;DHT22;47773;53.174;6.614;2022-11-22T01:17:26;3.10;99.90
61841;DHT22;47773;53.174;6.614;2022-11-22T01:19:52;3.10;99.90
61841;DHT22;47773;53.174;6.614;2022-11-22T01:22:18;3.20;99.90
61841;DHT22;47773;53.174;6.614;2022-11-22T01:24:43;3.10;99.90
61841;DHT22;47773;53.174;6.614;2022-11-22T01:27:09;3.10;99.90
61841;DHT22;47773;53.174;6.614;2022-11-22T01:29:35;3.20;99.90
61841;DHT22;47773;53.174;6.614;2022-11-22T01:32:01;3.20;99.90
61841;DHT22;47773;53.174;6.614;2022-11-22T01:34:26;3.20;99.90
61841;DHT22;47773;53.174;6.614;2022-11-22T01:36:52;3.20;99.90
61841;DHT22;47773;53.174;6.614;2022-11-22T01:39:17;3.20;99.90
61841;DHT22;47773;53.174;6.614;2022-11-22T01:41:43;3.20;99.90
61841;DHT22;47773;53.174;6.614;2022-11-22T01:44:30;3.10;99.90
61841;DHT22;47773;53.174;6.614;2022-11-22T01:47:12;3.20;99.90
61841;DHT22;47773;53.174;6.614;2022-11-22T01:49:46;3.20;99.90
61841;DHT22;47773;53.174;6.614;2022-11-22T01:52:20;3.20;99.90
61841;DHT22;47773;53.174;6.614;2022-11-22T01:55:01;3.20;99.90
61841;DHT22;47773;53.174;6.614;2022-11-22T01:57:31;3.20;99.90
61841;DHT22;47773;53.174;6.614;2022-11-22T02:00:04;3.20;99.90
61841;DHT22;47773;53.174;6.614;2022-11-22T02:02:30;3.20;99.90
61841;DHT22;47773;53.174;6.614;2022-11-22T02:04:57;3.20;99.90
61841;DHT22;47773;53.174;6.614;2022-11-22T02:07:35;3.20;99.90
61841;DHT22;47773;53.174;6.614;2022-11-22T02:10:06;3.20;99.90
61841;DHT22;47773;53.174;6.614;2022-11-22T02:12:33;3.20;99.90
61841;DHT22;47773;53.174;6.614;2022-11-22T02:15:00;3.20;99.90
61841;DHT22;47773;53.174;6.614;2022-11-22T02:17:27;3.30;99.90
61841;DHT22;47773;53.174;6.614;2022-11-22T02:19:53;3.20;99.90
61841;DHT22;47773;53.174;6.614;2022-11-22T02:27:49;3.30;99.90
61841;DHT22;47773;53.174;6.614;2022-11-22T02:30:15;3.30;99.90
61841;DHT22;47773;53.174;6.614;2022-11-22T02:32:41;3.30;99.90
61841;DHT22;47773;53.174;6.614;2022-11-22T02:35:19;3.30;99.90
61841;DHT22;47773;53.174;6.614;2022-11-22T02:37:47;3.30;99.90
61841;DHT22;47773;53.174;6.614;2022-11-22T02:40:15;3.40;99.90
61841;DHT22;47773;53.174;6.614;2022-11-22T02:42:47;3.30;99.90
61841;DHT22;47773;53.174;6.614;2022-11-22T02:45:14;3.40;99.90
61841;DHT22;47773;53.174;6.614;2022-11-22T02:47:41;3.40;99.90
61841;DHT22;47773;53.174;6.614;2022-11-22T02:50:07;3.40;99.90
61841;DHT22;47773;53.174;6.614;2022-11-22T02:52:32;3.40;99.90
61841;DHT22;47773;53.174;6.614;2022-11-22T02:54:58;3.40;99.90
61841;DHT22;47773;53.174;6.614;2022-11-22T02:57:24;3.40;99.90
61841;DHT22;47773;53.174;6.614;2022-11-22T02:59:49;3.40;99.90
61841;DHT22;47773;53.174;6.614;2022-11-22T03:02:15;3.40;99.90
61841;DHT22;47773;53.174;6.614;2022-11-22T03:04:40;3.50;99.90
61841;DHT22;47773;53.174;6.614;2022-11-22T03:07:06;3.40;99.90
61841;DHT22;47773;53.174;6.614;2022-11-22T03:09:32;3.50;99.90
61841;DHT22;47773;53.174;6.614;2022-11-22T03:11:58;3.50;99.90
61841;DHT22;47773;53.174;6.614;2022-11-22T03:14:23;3.50;99.90
61841;DHT22;47773;53.174;6.614;2022-11-22T03:16:49;3.50;99.90
61841;DHT22;47773;53.174;6.614;2022-11-22T03:19:15;3.50;99.90
61841;DHT22;47773;53.174;6.614;2022-11-22T03:21:41;3.50;99.90
61841;DHT22;47773;53.174;6.614;2022-11-22T03:24:08;3.50;99.90
61841;DHT22;47773;53.174;6.614;2022-11-22T03:26:34;3.50;99.90
61841;DHT22;47773;53.174;6.614;2022-11-22T03:29:00;3.60;99.90
61841;DHT22;47773;53.174;6.614;2022-11-22T03:31:26;3.60;99.90
61841;DHT22;47773;53.174;6.614;2022-11-22T03:33:52;3.60;99.90
61841;DHT22;47773;53.174;6.614;2022-11-22T03:36:18;3.60;99.90
61841;DHT22;47773;53.174;6.614;2022-11-22T03:38:43;3.60;99.90
61841;DHT22;47773;53.174;6.614;2022-11-22T03:41:09;3.60;99.90
61841;DHT22;47773;53.174;6.614;2022-11-22T03:43:35;3.60;99.90
61841;DHT22;47773;53.174;6.614;2022-11-22T03:46:00;3.60;99.90
61841;DHT22;47773;53.174;6.614;2022-11-22T03:48:26;3.60;99.90
61841;DHT22;47773;53.174;6.614;2022-11-22T03:50:52;3.70;99.90
61841;DHT22;47773;53.174;6.614;2022-11-22T03:53:17;3.70;99.90
61841;DHT22;47773;53.174;6.614;2022-11-22T03:55:43;3.70;99.90
61841;DHT22;47773;53.174;6.614;2022-11-22T03:58:08;3.70;99.90
61841;DHT22;47773;53.174;6.614;2022-11-22T04:00:34;3.70;99.90
61841;DHT22;47773;53.174;6.614;2022-11-22T04:03:00;3.70;99.90
61841;DHT22;47773;53.174;6.614;2022-11-22T04:05:26;3.70;99.90
61841;DHT22;47773;53.174;6.614;2022-11-22T04:07:51;3.70;99.90
61841;DHT22;47773;53.174;6.614;2022-11-22T04:10:22;3.70;99.90
61841;DHT22;47773;53.174;6.614;2022-11-22T04:12:47;3.70;99.90
61841;DHT22;47773;53.174;6.614;2022-11-22T04:15:13;3.70;99.90
61841;DHT22;47773;53.174;6.614;2022-11-22T04:17:42;3.70;99.90
61841;DHT22;47773;53.174;6.614;2022-11-22T04:20:22;3.70;99.90
61841;DHT22;47773;53.174;6.614;2022-11-22T04:23:20;3.80;99.90
61841;DHT22;47773;53.174;6.614;2022-11-22T04:25:50;3.80;99.90
61841;DHT22;47773;53.174;6.614;2022-11-22T04:28:18;3.80;99.90
61841;DHT22;47773;53.174;6.614;2022-11-22T04:30:44;3.80;99.90
61841;DHT22;47773;53.174;6.614;2022-11-22T04:33:29;3.80;99.90
61841;DHT22;47773;53.174;6.614;2022-11-22T04:35:55;3.80;99.90
61841;DHT22;47773;53.174;6.614;2022-11-22T04:38:21;3.80;99.90
61841;DHT22;47773;53.174;6.614;2022-11-22T04:40:47;3.90;99.90
61841;DHT22;47773;53.174;6.614;2022-11-22T04:43:27;3.90;99.90
61841;DHT22;47773;53.174;6.614;2022-11-22T04:46:13;3.90;99.90
61841;DHT22;47773;53.174;6.614;2022-11-22T04:48:38;3.90;99.90
61841;DHT22;47773;53.174;6.614;2022-11-22T04:51:05;3.90;99.90
61841;DHT22;47773;53.174;6.614;2022-11-22T04:53:50;4.00;99.90
61841;DHT22;47773;53.174;6.614;2022-11-22T04:56:16;4.00;99.90
61841;DHT22;47773;53.174;6.614;2022-11-22T04:58:41;4.00;99.90
61841;DHT22;47773;53.174;6.614;2022-11-22T05:01:07;4.00;99.90
61841;DHT22;47773;53.174;6.614;2022-11-22T05:03:33;4.00;99.90
61841;DHT22;47773;53.174;6.614;2022-11-22T05:06:03;4.00;99.90
61841;DHT22;47773;53.174;6.614;2022-11-22T05:08:29;4.00;99.90
61841;DHT22;47773;53.174;6.614;2022-11-22T05:10:55;4.10;99.90
61841;DHT22;47773;53.174;6.614;2022-11-22T05:13:23;4.10;99.90
61841;DHT22;47773;53.174;6.614;2022-11-22T05:18:16;4.20;99.90
61841;DHT22;47773;53.174;6.614;2022-11-22T05:23:09;4.30;99.90
61841;DHT22;47773;53.174;6.614;2022-11-22T05:25:53;4.20;99.90
61841;DHT22;47773;53.174;6.614;2022-11-22T05:28:19;4.30;99.90
61841;DHT22;47773;53.174;6.614;2022-11-22T05:30:45;4.20;99.90
61841;DHT22;47773;53.174;6.614;2022-11-22T05:33:10;4.20;99.90
61841;DHT22;47773;53.174;6.614;2022-11-22T05:35:36;4.20;99.90
61841;DHT22;47773;53.174;6.614;2022-11-22T05:38:01;4.30;99.90
61841;DHT22;47773;53.174;6.614;2022-11-22T05:42:53;4.50;99.90
61841;DHT22;47773;53.174;6.614;2022-11-22T05:45:19;4.40;99.90
61841;DHT22;47773;53.174;6.614;2022-11-22T05:47:45;4.30;99.90
61841;DHT22;47773;53.174;6.614;2022-11-22T05:50:11;4.30;99.90
61841;DHT22;47773;53.174;6.614;2022-11-22T05:52:37;4.30;99.90
61841;DHT22;47773;53.174;6.614;2022-11-22T05:55:03;4.30;99.90
61841;DHT22;47773;53.174;6.614;2022-11-22T05:59:56;4.40;99.90
61841;DHT22;47773;53.174;6.614;2022-11-22T06:02:22;4.40;99.90
61841;DHT22;47773;53.174;6.614;2022-11-22T06:04:48;4.40;99.90
61841;DHT22;47773;53.174;6.614;2022-11-22T06:09:39;4.40;99.90
61841;DHT22;47773;53.174;6.614;2022-11-22T06:12:05;4.40;99.90
61841;DHT22;47773;53.174;6.614;2022-11-22T06:14:31;4.40;99.90
61841;DHT22;47773;53.174;6.614;2022-11-22T06:16:57;4.40;99.90
61841;DHT22;47773;53.174;6.614;2022-11-22T06:19:22;4.50;99.90
61841;DHT22;47773;53.174;6.614;2022-11-22T06:21:48;4.50;99.90
61841;DHT22;47773;53.174;6.614;2022-11-22T06:24:13;4.50;99.90
61841;DHT22;47773;53.174;6.614;2022-11-22T06:26:39;4.50;99.90
61841;DHT22;47773;53.174;6.614;2022-11-22T06:29:05;4.50;99.90
61841;DHT22;47773;53.174;6.614;2022-11-22T06:33:59;4.50;99.90
61841;DHT22;47773;53.174;6.614;2022-11-22T06:36:30;4.60;99.90
61841;DHT22;47773;53.174;6.614;2022-11-22T06:38:56;4.60;99.90
61841;DHT22;47773;53.174;6.614;2022-11-22T06:41:23;4.60;99.90
61841;DHT22;47773;53.174;6.614;2022-11-22T06:58:40;5.10;99.90
61841;DHT22;47773;53.174;6.614;2022-11-22T07:01:08;4.90;99.90
61841;DHT22;47773;53.174;6.614;2022-11-22T07:10:53;5.00;99.90
61841;DHT22;47773;53.174;6.614;2022-11-22T07:13:19;4.90;99.90
61841;DHT22;47773;53.174;6.614;2022-11-22T07:15:55;4.90;99.90
61841;DHT22;47773;53.174;6.614;2022-11-22T07:18:21;4.90;99.90
61841;DHT22;47773;53.174;6.614;2022-11-22T07:20:47;4.90;99.90
61841;DHT22;47773;53.174;6.614;2022-11-22T07:23:13;4.90;99.90
61841;DHT22;47773;53.174;6.614;2022-11-22T07:28:09;5.00;99.90
61841;DHT22;47773;53.174;6.614;2022-11-22T07:30:34;5.00;99.90
61841;DHT22;47773;53.174;6.614;2022-11-22T07:35:26;5.00;99.90
61841;DHT22;47773;53.174;6.614;2022-11-22T07:37:52;5.00;99.90
61841;DHT22;47773;53.174;6.614;2022-11-22T07:40:18;5.00;99.90
61841;DHT22;47773;53.174;6.614;2022-11-22T07:42:43;5.00;99.90
61841;DHT22;47773;53.174;6.614;2022-11-22T07:45:09;5.00;99.90
61841;DHT22;47773;53.174;6.614;2022-11-22T07:47:35;5.10;99.90
61841;DHT22;47773;53.174;6.614;2022-11-22T07:52:27;5.30;99.90
61841;DHT22;47773;53.174;6.614;2022-11-22T07:57:18;5.30;99.90
61841;DHT22;47773;53.174;6.614;2022-11-22T07:59:44;5.30;99.90
61841;DHT22;47773;53.174;6.614;2022-11-22T08:02:10;5.30;99.90
61841;DHT22;47773;53.174;6.614;2022-11-22T08:04:36;5.30;99.90
61841;DHT22;47773;53.174;6.614;2022-11-22T08:07:02;5.30;99.90
61841;DHT22;47773;53.174;6.614;2022-11-22T08:09:28;5.40;99.90
61841;DHT22;47773;53.174;6.614;2022-11-22T08:11:54;5.40;99.90
61841;DHT22;47773;53.174;6.614;2022-11-22T08:14:19;5.50;99.90
61841;DHT22;47773;53.174;6.614;2022-11-22T08:16:45;5.60;99.90
61841;DHT22;47773;53.174;6.614;2022-11-22T08:19:11;5.60;99.90
61841;DHT22;47773;53.174;6.614;2022-11-22T08:21:44;5.60;99.90
61841;DHT22;47773;53.174;6.614;2022-11-22T08:24:11;5.70;99.90
61841;DHT22;47773;53.174;6.614;2022-11-22T08:26:36;5.70;99.90
61841;DHT22;47773;53.174;6.614;2022-11-22T08:29:04;5.80;99.90
61841;DHT22;47773;53.174;6.614;2022-11-22T08:31:30;6.00;99.90
61841;DHT22;47773;53.174;6.614;2022-11-22T08:38:48;6.10;99.90
61841;DHT22;47773;53.174;6.614;2022-11-22T08:41:14;6.00;99.90
61841;DHT22;47773;53.174;6.614;2022-11-22T08:43:39;6.00;99.90
61841;DHT22;47773;53.174;6.614;2022-11-22T08:46:05;6.00;99.90
61841;DHT22;47773;53.174;6.614;2022-11-22T08:48:32;6.00;99.90
61841;DHT22;47773;53.174;6.614;2022-11-22T08:51:00;6.00;99.90
61841;DHT22;47773;53.174;6.614;2022-11-22T08:53:27;6.00;99.90
61841;DHT22;47773;53.174;6.614;2022-11-22T08:55:54;6.10;99.90
61841;DHT22;47773;53.174;6.614;2022-11-22T08:58:21;6.10;99.90
61841;DHT22;47773;53.174;6.614;2022-11-22T09:00:47;6.10;99.90
61841;DHT22;47773;53.174;6.614;2022-11-22T09:03:12;6.10;99.90
61841;DHT22;47773;53.174;6.614;2022-11-22T09:05:38;6.20;99.90
61841;DHT22;47773;53.174;6.614;2022-11-22T09:08:04;6.30;99.90
61841;DHT22;47773;53.174;6.614;2022-11-22T09:10:29;6.30;99.90
61841;DHT22;47773;53.174;6.614;2022-11-22T09:12:55;6.30;99.90
61841;DHT22;47773;53.174;6.614;2022-11-22T09:15:21;6.40;99.90
61841;DHT22;47773;53.174;6.614;2022-11-22T09:22:39;6.40;99.90
61841;DHT22;47773;53.174;6.614;2022-11-22T09:25:05;6.30;99.90
61841;DHT22;47773;53.174;6.614;2022-11-22T09:27:32;6.30;99.90
61841;DHT22;47773;53.174;6.614;2022-11-22T09:29:58;6.20;99.90
61841;DHT22;47773;53.174;6.614;2022-11-22T09:32:24;6.30;99.90
61841;DHT22;47773;53.174;6.614;2022-11-22T09:34:49;6.20;99.90
61841;DHT22;47773;53.174;6.614;2022-11-22T09:37:15;6.20;99.90
61841;DHT22;47773;53.174;6.614;2022-11-22T09:39:46;6.20;99.90
61841;DHT22;47773;53.174;6.614;2022-11-22T09:42:30;6.20;99.90
61841;DHT22;47773;53.174;6.614;2022-11-22T09:47:41;6.20;99.90
61841;DHT22;47773;53.174;6.614;2022-11-22T09:52:45;6.30;99.90
61841;DHT22;47773;53.174;6.614;2022-11-22T09:55:26;6.30;99.90
61841;DHT22;47773;53.174;6.614;2022-11-22T09:58:24;6.20;99.90
61841;DHT22;47773;53.174;6.614;2022-11-22T10:00:54;6.20;99.90
61841;DHT22;47773;53.174;6.614;2022-11-22T10:06:23;6.30;99.90
61841;DHT22;47773;53.174;6.614;2022-11-22T10:08:58;6.30;99.90
61841;DHT22;47773;53.174;6.614;2022-11-22T10:14:13;6.60;99.90
61841;DHT22;47773;53.174;6.614;2022-11-22T10:17:00;6.50;99.90
61841;DHT22;47773;53.174;6.614;2022-11-22T10:19:36;6.50;99.90
61841;DHT22;47773;53.174;6.614;2022-11-22T10:22:11;6.50;99.90
61841;DHT22;47773;53.174;6.614;2022-11-22T10:27:12;6.70;99.90
61841;DHT22;47773;53.174;6.614;2022-11-22T10:32:37;6.60;99.90
61841;DHT22;47773;53.174;6.614;2022-11-22T10:43:14;6.70;99.90
61841;DHT22;47773;53.174;6.614;2022-11-22T10:45:55;6.70;99.90
61841;DHT22;47773;53.174;6.614;2022-11-22T10:56:32;7.10;99.90
61841;DHT22;47773;53.174;6.614;2022-11-22T11:04:58;7.10;99.90
61841;DHT22;47773;53.174;6.614;2022-11-22T11:07:25;7.20;99.90
61841;DHT22;47773;53.174;6.614;2022-11-22T11:09:57;7.20;99.90
61841;DHT22;47773;53.174;6.614;2022-11-22T11:12:27;7.20;99.90
61841;DHT22;47773;53.174;6.614;2022-11-22T11:15:16;7.30;99.90
61841;DHT22;47773;53.174;6.614;2022-11-22T11:17:44;7.30;99.90
61841;DHT22;47773;53.174;6.614;2022-11-22T11:20:27;7.30;99.90
61841;DHT22;47773;53.174;6.614;2022-11-22T11:22:53;7.30;99.90
61841;DHT22;47773;53.174;6.614;2022-11-22T11:25:29;7.30;99.90
61841;DHT22;47773;53.174;6.614;2022-11-22T11:28:00;7.30;99.90
61841;DHT22;47773;53.174;6.614;2022-11-22T11:30:26;7.30;99.90
61841;DHT22;47773;53.174;6.614;2022-11-22T11:32:55;7.30;99.90
61841;DHT22;47773;53.174;6.614;2022-11-22T11:35:25;7.30;99.90
61841;DHT22;47773;53.174;6.614;2022-11-22T11:37:51;7.30;99.90
61841;DHT22;47773;53.174;6.614;2022-11-22T11:40:28;7.30;99.90
61841;DHT22;47773;53.174;6.614;2022-11-22T11:43:19;7.20;99.90
61841;DHT22;47773;53.174;6.614;2022-11-22T11:45:45;7.20;99.90
61841;DHT22;47773;53.174;6.614;2022-11-22T11:50:50;7.30;99.90
61841;DHT22;47773;53.174;6.614;2022-11-22T11:53:23;7.30;99.90
61841;DHT22;47773;53.174;6.614;2022-11-22T11:55:49;7.40;99.90
61841;DHT22;47773;53.174;6.614;2022-11-22T11:58:20;7.40;99.90
61841;DHT22;47773;53.174;6.614;2022-11-22T12:00:48;7.40;99.90
61841;DHT22;47773;53.174;6.614;2022-11-22T12:03:17;7.50;99.90
61841;DHT22;47773;53.174;6.614;2022-11-22T12:05:43;7.50;99.90
61841;DHT22;47773;53.174;6.614;2022-11-22T12:08:29;7.50;99.90
61841;DHT22;47773;53.174;6.614;2022-11-22T12:11:10;7.60;99.90
61841;DHT22;47773;53.174;6.614;2022-11-22T12:13:42;7.60;99.90
61841;DHT22;47773;53.174;6.614;2022-11-22T12:16:21;7.60;99.90
61841;DHT22;47773;53.174;6.614;2022-11-22T12:24:48;7.70;99.90
61841;DHT22;47773;53.174;6.614;2022-11-22T12:27:18;7.70;99.90
61841;DHT22;47773;53.174;6.614;2022-11-22T12:29:44;7.80;99.90
61841;DHT22;47773;53.174;6.614;2022-11-22T12:34:57;7.80;99.90
61841;DHT22;47773;53.174;6.614;2022-11-22T12:40:10;7.90;99.90
61841;DHT22;47773;53.174;6.614;2022-11-22T12:42:44;7.80;99.90
61841;DHT22;47773;53.174;6.614;2022-11-22T12:45:21;7.80;99.90
61841;DHT22;47773;53.174;6.614;2022-11-22T12:47:49;7.80;99.90
61841;DHT22;47773;53.174;6.614;2022-11-22T12:50:44;7.80;99.90
61841;DHT22;47773;53.174;6.614;2022-11-22T12:53:16;7.80;99.90
61841;DHT22;47773;53.174;6.614;2022-11-22T12:55:50;7.80;99.90
61841;DHT22;47773;53.174;6.614;2022-11-22T12:58:39;7.80;99.90
61841;DHT22;47773;53.174;6.614;2022-11-22T13:01:14;7.70;99.90
61841;DHT22;47773;53.174;6.614;2022-11-22T13:06:24;7.70;99.90
61841;DHT22;47773;53.174;6.614;2022-11-22T13:09:04;7.80;99.90
61841;DHT22;47773;53.174;6.614;2022-11-22T13:11:36;7.80;99.90
61841;DHT22;47773;53.174;6.614;2022-11-22T13:14:14;7.70;99.90
61841;DHT22;47773;53.174;6.614;2022-11-22T13:16:40;7.80;99.90
61841;DHT22;47773;53.174;6.614;2022-11-22T13:27:27;7.80;99.90
61841;DHT22;47773;53.174;6.614;2022-11-22T13:29:57;7.80;99.90
61841;DHT22;47773;53.174;6.614;2022-11-22T13:32:30;7.80;99.90
61841;DHT22;47773;53.174;6.614;2022-11-22T13:37:41;7.80;99.90
61841;DHT22;47773;53.174;6.614;2022-11-22T13:40:33;7.80;99.90
61841;DHT22;47773;53.174;6.614;2022-11-22T13:45:57;7.80;99.90
61841;DHT22;47773;53.174;6.614;2022-11-22T13:51:13;7.70;99.90
61841;DHT22;47773;53.174;6.614;2022-11-22T13:53:44;7.80;99.90
61841;DHT22;47773;53.174;6.614;2022-11-22T14:07:06;7.70;99.90
61841;DHT22;47773;53.174;6.614;2022-11-22T14:09:55;7.70;99.90
61841;DHT22;47773;53.174;6.614;2022-11-22T14:15:07;7.70;99.90
61841;DHT22;47773;53.174;6.614;2022-11-22T14:17:59;7.70;99.90
61841;DHT22;47773;53.174;6.614;2022-11-22T14:20:59;7.70;99.90
61841;DHT22;47773;53.174;6.614;2022-11-22T14:31:34;7.70;99.90
61841;DHT22;47773;53.174;6.614;2022-11-22T14:34:24;7.70;99.90
61841;DHT22;47773;53.174;6.614;2022-11-22T14:50:03;7.70;99.90
61841;DHT22;47773;53.174;6.614;2022-11-22T14:52:33;7.60;99.90
61841;DHT22;47773;53.174;6.614;2022-11-22T14:55:05;7.60;99.90
61841;DHT22;47773;53.174;6.614;2022-11-22T14:57:34;7.60;99.90
61841;DHT22;47773;53.174;6.614;2022-11-22T15:00:18;7.60;99.90
61841;DHT22;47773;53.174;6.614;2022-11-22T15:13:54;7.60;99.90
61841;DHT22;47773;53.174;6.614;2022-11-22T15:16:27;7.60;99.90
61841;DHT22;47773;53.174;6.614;2022-11-22T15:18:53;7.50;99.90
61841;DHT22;47773;53.174;6.614;2022-11-22T15:21:30;7.60;99.90
61841;DHT22;47773;53.174;6.614;2022-11-22T15:23:56;7.50;99.90
61841;DHT22;47773;53.174;6.614;2022-11-22T15:26:25;7.50;99.90
61841;DHT22;47773;53.174;6.614;2022-11-22T15:28:52;7.50;99.90
61841;DHT22;47773;53.174;6.614;2022-11-22T15:33:51;7.50;99.90
61841;DHT22;47773;53.174;6.614;2022-11-22T15:38:58;7.40;99.90
61841;DHT22;47773;53.174;6.614;2022-11-22T15:41:27;7.50;99.90
61841;DHT22;47773;53.174;6.614;2022-11-22T15:43:53;7.40;99.90
61841;DHT22;47773;53.174;6.614;2022-11-22T15:46:20;7.40;99.90
61841;DHT22;47773;53.174;6.614;2022-11-22T15:48:49;7.40;99.90
61841;DHT22;47773;53.174;6.614;2022-11-22T16:01:42;7.40;99.90
61841;DHT22;47773;53.174;6.614;2022-11-22T16:04:25;7.40;99.90
61841;DHT22;47773;53.174;6.614;2022-11-22T16:06:51;7.40;99.90
61841;DHT22;47773;53.174;6.614;2022-11-22T16:09:25;7.40;99.90
61841;DHT22;47773;53.174;6.614;2022-11-22T16:11:53;7.40;99.90
61841;DHT22;47773;53.174;6.614;2022-11-22T16:17:26;7.40;99.90
61841;DHT22;47773;53.174;6.614;2022-11-22T16:19:53;7.40;99.90
61841;DHT22;47773;53.174;6.614;2022-11-22T16:22:38;7.40;99.90
61841;DHT22;47773;53.174;6.614;2022-11-22T16:25:30;7.40;99.90
61841;DHT22;47773;53.174;6.614;2022-11-22T16:27:56;7.40;99.90
61841;DHT22;47773;53.174;6.614;2022-11-22T16:30:22;7.40;99.90
61841;DHT22;47773;53.174;6.614;2022-11-22T16:32:47;7.40;99.90
61841;DHT22;47773;53.174;6.614;2022-11-22T16:35:15;7.40;99.90
61841;DHT22;47773;53.174;6.614;2022-11-22T16:37:43;7.40;99.90
61841;DHT22;47773;53.174;6.614;2022-11-22T16:40:12;7.40;99.90
61841;DHT22;47773;53.174;6.614;2022-11-22T16:42:41;7.40;99.90
61841;DHT22;47773;53.174;6.614;2022-11-22T16:45:33;7.40;99.90
61841;DHT22;47773;53.174;6.614;2022-11-22T16:47:59;7.40;99.90
61841;DHT22;47773;53.174;6.614;2022-11-22T16:50:25;7.40;99.90
61841;DHT22;47773;53.174;6.614;2022-11-22T16:52:51;7.40;99.90
61841;DHT22;47773;53.174;6.614;2022-11-22T16:55:18;7.50;99.90
61841;DHT22;47773;53.174;6.614;2022-11-22T16:57:45;7.40;99.90
61841;DHT22;47773;53.174;6.614;2022-11-22T17:00:11;7.40;99.90
61841;DHT22;47773;53.174;6.614;2022-11-22T17:02:40;7.40;99.90
61841;DHT22;47773;53.174;6.614;2022-11-22T17:05:09;7.40;99.90
61841;DHT22;47773;53.174;6.614;2022-11-22T17:07:36;7.40;99.90
61841;DHT22;47773;53.174;6.614;2022-11-22T17:10:02;7.40;99.90
61841;DHT22;47773;53.174;6.614;2022-11-22T17:12:28;7.40;99.90
61841;DHT22;47773;53.174;6.614;2022-11-22T17:14:53;7.40;99.90
61841;DHT22;47773;53.174;6.614;2022-11-22T17:17:20;7.40;99.90
61841;DHT22;47773;53.174;6.614;2022-11-22T17:19:46;7.40;99.90
61841;DHT22;47773;53.174;6.614;2022-11-22T17:22:13;7.40;99.90
61841;DHT22;47773;53.174;6.614;2022-11-22T17:24:39;7.40;99.90
61841;DHT22;47773;53.174;6.614;2022-11-22T17:27:05;7.40;99.90
61841;DHT22;47773;53.174;6.614;2022-11-22T17:29:30;7.40;99.90
61841;DHT22;47773;53.174;6.614;2022-11-22T17:31:56;7.40;99.90
61841;DHT22;47773;53.174;6.614;2022-11-22T17:34:22;7.40;99.90
61841;DHT22;47773;53.174;6.614;2022-11-22T17:36:47;7.40;99.90
61841;DHT22;47773;53.174;6.614;2022-11-22T17:39:13;7.40;99.90
61841;DHT22;47773;53.174;6.614;2022-11-22T17:41:40;7.40;99.90
61841;DHT22;47773;53.174;6.614;2022-11-22T17:44:06;7.30;99.90
61841;DHT22;47773;53.174;6.614;2022-11-22T17:46:33;7.30;99.90
61841;DHT22;47773;53.174;6.614;2022-11-22T17:49:03;7.30;99.90
61841;DHT22;47773;53.174;6.614;2022-11-22T17:51:30;7.30;99.90
61841;DHT22;47773;53.174;6.614;2022-11-22T17:53:57;7.30;99.90
61841;DHT22;47773;53.174;6.614;2022-11-22T17:56:23;7.30;99.90
61841;DHT22;47773;53.174;6.614;2022-11-22T17:58:49;7.20;99.90
61841;DHT22;47773;53.174;6.614;2022-11-22T18:01:17;7.20;99.90
61841;DHT22;47773;53.174;6.614;2022-11-22T18:03:45;7.30;99.90
61841;DHT22;47773;53.174;6.614;2022-11-22T18:06:11;7.20;99.90
61841;DHT22;47773;53.174;6.614;2022-11-22T18:08:37;7.30;99.90
61841;DHT22;47773;53.174;6.614;2022-11-22T18:11:05;7.30;99.90
61841;DHT22;47773;53.174;6.614;2022-11-22T18:13:32;7.30;99.90
61841;DHT22;47773;53.174;6.614;2022-11-22T18:16:00;7.30;99.90
61841;DHT22;47773;53.174;6.614;2022-11-22T18:18:26;7.30;99.90
61841;DHT22;47773;53.174;6.614;2022-11-22T18:20:54;7.30;99.90
61841;DHT22;47773;53.174;6.614;2022-11-22T18:23:21;7.30;99.90
61841;DHT22;47773;53.174;6.614;2022-11-22T18:25:47;7.30;99.90
61841;DHT22;47773;53.174;6.614;2022-11-22T18:28:13;7.30;99.90
61841;DHT22;47773;53.174;6.614;2022-11-22T18:30:40;7.40;99.90
61841;DHT22;47773;53.174;6.614;2022-11-22T18:33:05;7.30;99.90
61841;DHT22;47773;53.174;6.614;2022-11-22T18:35:31;7.30;99.90
61841;DHT22;47773;53.174;6.614;2022-11-22T18:37:57;7.40;99.90
61841;DHT22;47773;53.174;6.614;2022-11-22T18:40:23;7.30;99.90
61841;DHT22;47773;53.174;6.614;2022-11-22T18:42:49;7.40;99.90
61841;DHT22;47773;53.174;6.614;2022-11-22T18:45:19;7.40;99.90
61841;DHT22;47773;53.174;6.614;2022-11-22T18:47:45;7.40;99.90
61841;DHT22;47773;53.174;6.614;2022-11-22T18:50:11;7.40;99.90
61841;DHT22;47773;53.174;6.614;2022-11-22T18:52:37;7.40;99.90
61841;DHT22;47773;53.174;6.614;2022-11-22T18:55:04;7.40;99.90
61841;DHT22;47773;53.174;6.614;2022-11-22T18:57:30;7.50;99.90
61841;DHT22;47773;53.174;6.614;2022-11-22T18:59:56;7.40;99.90
61841;DHT22;47773;53.174;6.614;2022-11-22T19:02:21;7.50;99.90
61841;DHT22;47773;53.174;6.614;2022-11-22T19:04:52;7.50;99.90
61841;DHT22;47773;53.174;6.614;2022-11-22T19:07:19;7.50;99.90
61841;DHT22;47773;53.174;6.614;2022-11-22T19:09:45;7.40;99.90
61841;DHT22;47773;53.174;6.614;2022-11-22T19:12:11;7.50;99.90
61841;DHT22;47773;53.174;6.614;2022-11-22T19:14:37;7.50;99.90
61841;DHT22;47773;53.174;6.614;2022-11-22T19:17:03;7.50;99.90